Time;durP1;ratioP1;P1;durP2;ratioP2;P2;SDS_P1;SDS_P2;PMS_P1;PMS_P2;Temp;Humidity;BMP_temperature;BMP_pressure;BME280_temperature;BME280_humidity;BME280_pressure;Samples;Min_cycle;Max_cycle;Signal;HPM_P1;HPM_P2
2021/12/22 00:02:19;;;;;;;15.80;10.27;;;1.50;99.90;1.20;101687.00;;;;5051332;27;93072;-68
2021/12/22 00:04:47;;;;;;;17.80;11.47;;;1.50;99.90;1.20;101690.00;;;;5053502;27;93877;-68
2021/12/22 00:07:14;;;;;;;23.07;12.53;;;1.50;99.90;1.20;101679.00;;;;5051731;27;92599;-68
2021/12/22 00:09:41;;;;;;;13.87;8.13;;;1.40;99.90;1.20;101681.00;;;;5053219;27;92930;-68
2021/12/22 00:12:08;;;;;;;18.10;10.53;;;1.50;99.90;1.20;101682.00;;;;5053005;27;94141;-68
2021/12/22 00:14:34;;;;;;;16.63;10.77;;;1.50;99.90;1.20;101686.00;;;;5032994;27;96907;-68
2021/12/22 00:17:00;;;;;;;18.13;11.83;;;1.70;99.90;1.20;101691.00;;;;5025536;27;123610;-68
2021/12/22 00:19:26;;;;;;;19.83;10.23;;;2.50;99.90;1.20;101695.00;;;;5035374;27;122657;-68
2021/12/22 00:21:51;;;;;;;18.00;11.37;;;1.50;99.90;1.20;101697.00;;;;5027158;27;113132;-68
2021/12/22 00:24:17;;;;;;;21.63;10.53;;;1.60;99.90;1.20;101693.00;;;;5035938;27;98341;-68
2021/12/22 00:26:43;;;;;;;19.67;12.40;;;1.50;99.90;1.20;101695.00;;;;5025442;27;123580;-68
2021/12/22 00:29:09;;;;;;;21.67;11.37;;;2.40;99.90;1.20;101692.00;;;;5044155;27;93831;-69
2021/12/22 00:31:43;;;;;;;13.93;9.60;;;1.50;99.90;1.20;101695.00;;;;5056800;27;92835;-68
2021/12/22 00:34:16;;;;;;;17.60;10.60;;;1.40;99.90;1.20;101690.00;;;;5051768;27;94090;-68
2021/12/22 00:36:44;;;;;;;16.97;10.30;;;2.10;99.90;1.10;101691.00;;;;5027156;27;93906;-68
2021/12/22 00:39:10;;;;;;;19.03;11.23;;;1.50;99.90;1.10;101683.00;;;;5035017;27;108657;-69
2021/12/22 00:41:35;;;;;;;18.37;10.27;;;1.40;99.90;1.10;101682.00;;;;5026792;27;97261;-70
2021/12/22 00:44:01;;;;;;;16.07;10.03;;;1.40;99.90;1.10;101679.00;;;;5035127;27;108336;-70
2021/12/22 00:46:27;;;;;;;15.97;9.73;;;1.30;99.90;1.10;101699.00;;;;5027316;27;93169;-71
2021/12/22 00:48:53;;;;;;;21.27;10.17;;;1.40;99.90;1.00;101689.00;;;;5053957;27;121511;-70
2021/12/22 00:51:19;;;;;;;23.53;10.10;;;1.30;99.90;1.00;101699.00;;;;5055841;27;93276;-70
2021/12/22 00:53:44;;;;;;;18.70;10.80;;;1.40;99.90;1.00;101697.00;;;;5055147;27;93957;-70
2021/12/22 00:56:10;;;;;;;19.77;10.80;;;1.80;99.90;1.00;101699.00;;;;5053361;27;123133;-70
2021/12/22 00:58:36;;;;;;;16.70;10.00;;;1.30;99.90;1.00;101690.00;;;;5033993;27;121996;-70
2021/12/22 01:01:03;;;;;;;19.50;11.23;;;1.40;99.90;1.00;101685.00;;;;5028795;27;93327;-70
2021/12/22 01:03:29;;;;;;;18.97;9.33;;;1.30;99.90;1.00;101692.00;;;;5004001;27;92944;-70
2021/12/22 01:05:55;;;;;;;16.90;10.60;;;1.30;99.90;1.00;101688.00;;;;5024504;27;94214;-70
2021/12/22 01:08:21;;;;;;;18.47;9.80;;;1.30;99.90;0.90;101688.00;;;;5033295;27;121245;-70
2021/12/22 01:10:47;;;;;;;17.17;9.97;;;1.20;99.90;0.90;101690.00;;;;5028932;27;113242;-70
2021/12/22 01:13:13;;;;;;;28.33;11.07;;;1.20;99.90;0.80;101698.00;;;;5033070;27;92900;-70
2021/12/22 01:15:39;;;;;;;18.93;10.17;;;1.10;99.90;0.80;101704.00;;;;5029523;27;92674;-70
2021/12/22 01:18:14;;;;;;;18.07;9.87;;;1.10;99.90;0.80;101703.00;;;;5038707;27;95677;-71
2021/12/22 01:21:02;;;;;;;20.43;11.23;;;1.10;99.90;0.80;101701.00;;;;5055621;27;92704;-69
2021/12/22 01:23:34;;;;;;;18.53;10.67;;;2.00;99.90;0.70;101702.00;;;;5055583;27;92898;-70
2021/12/22 01:25:59;;;;;;;16.63;11.30;;;1.10;99.90;0.80;101708.00;;;;5037968;27;94375;-70
2021/12/22 01:28:27;;;;;;;20.87;11.03;;;1.50;99.90;0.70;101708.00;;;;5036411;27;93156;-70
2021/12/22 01:30:55;;;;;;;17.93;10.67;;;1.10;99.90;0.70;101701.00;;;;5027907;27;92720;-70
2021/12/22 01:33:21;;;;;;;16.77;9.60;;;1.00;99.90;0.70;101710.00;;;;5034465;27;92835;-70
2021/12/22 01:35:47;;;;;;;20.00;10.60;;;1.00;99.90;0.70;101709.00;;;;5053912;27;107498;-70
2021/12/22 01:38:13;;;;;;;29.33;10.70;;;1.20;99.90;0.70;101711.00;;;;5055350;27;92960;-70
2021/12/22 01:40:43;;;;;;;14.90;9.97;;;1.00;99.90;0.70;101715.00;;;;5055326;27;92856;-70
2021/12/22 01:43:10;;;;;;;20.70;10.10;;;1.00;99.90;0.70;101702.00;;;;5029656;27;93814;-70
2021/12/22 01:51:08;;;;;;;18.60;9.70;;;1.00;99.90;0.80;101710.00;;;;5055591;27;92773;-70
2021/12/22 01:53:49;;;;;;;17.87;9.90;;;1.10;99.90;0.80;101708.00;;;;5055101;27;95741;-69
2021/12/22 01:56:23;;;;;;;23.90;11.90;;;1.10;99.90;0.80;101711.00;;;;5035129;27;123221;-70
2021/12/22 01:58:56;;;;;;;17.43;9.00;;;1.00;99.90;0.80;101702.00;;;;5052641;27;93798;-70
2021/12/22 02:01:22;;;;;;;19.70;11.90;;;1.10;99.90;0.80;101714.00;;;;5056127;27;92001;-69
2021/12/22 02:03:51;;;;;;;22.33;11.60;;;1.10;99.90;0.90;101709.00;;;;5054764;27;96063;-70
2021/12/22 02:06:18;;;;;;;18.27;10.50;;;1.10;99.90;0.90;101698.00;;;;5055111;27;92937;-71
2021/12/22 02:08:45;;;;;;;24.93;12.23;;;1.20;99.90;0.90;101697.00;;;;5021951;27;94243;-69
2021/12/22 02:11:14;;;;;;;18.57;10.27;;;1.10;99.90;0.90;101691.00;;;;5026440;27;92723;-70
2021/12/22 02:13:44;;;;;;;20.83;10.07;;;0.80;99.90;0.90;101690.00;;;;5038521;27;92866;-70
2021/12/22 02:16:14;;;;;;;18.07;11.07;;;1.20;99.90;0.90;101690.00;;;;5036217;27;92970;-69
2021/12/22 02:18:45;;;;;;;18.47;11.67;;;1.20;99.90;0.90;101694.00;;;;5040750;27;93478;-71
2021/12/22 02:21:11;;;;;;;19.23;11.80;;;1.70;99.90;0.90;101697.00;;;;5026265;27;92754;-69
2021/12/22 02:23:38;;;;;;;23.47;11.53;;;1.30;99.90;0.90;101702.00;;;;5034480;27;92851;-70
2021/12/22 02:26:12;;;;;;;15.93;10.33;;;1.90;99.90;0.90;101708.00;;;;5026229;27;92875;-69
2021/12/22 02:28:45;;;;;;;20.63;11.23;;;1.20;99.90;0.80;101710.00;;;;5045565;27;94613;-70
2021/12/22 02:31:15;;;;;;;20.10;11.70;;;1.20;99.90;0.80;101704.00;;;;5054535;27;92800;-69
2021/12/22 02:33:43;;;;;;;17.00;10.10;;;1.10;99.90;0.80;101703.00;;;;5054366;27;93829;-69
2021/12/22 02:38:45;;;;;;;19.43;11.43;;;1.20;99.90;0.80;101697.00;;;;5032631;27;93074;-69
2021/12/22 02:41:14;;;;;;;23.23;11.97;;;1.00;99.90;0.70;101700.00;;;;5053183;27;101503;-70
2021/12/22 02:43:53;;;;;;;24.37;11.20;;;1.90;99.90;0.70;101695.00;;;;5033805;27;92965;-69
2021/12/22 02:46:24;;;;;;;24.10;11.73;;;1.00;99.90;0.70;101699.00;;;;5026050;27;93038;-70
2021/12/22 02:48:52;;;;;;;20.23;11.07;;;0.90;99.90;0.70;101705.00;;;;5010110;27;95497;-69
2021/12/22 02:51:20;;;;;;;18.63;10.60;;;0.50;99.90;0.60;101711.00;;;;5033543;27;99070;-70
2021/12/22 02:54:00;;;;;;;21.43;12.17;;;0.90;99.90;0.60;101697.00;;;;5033900;27;92828;-70
2021/12/22 02:56:38;;;;;;;19.63;11.10;;;0.90;99.90;0.60;101707.00;;;;5016477;27;93002;-68
2021/12/22 02:59:18;;;;;;;21.93;11.37;;;1.00;99.90;0.60;101706.00;;;;5032718;27;93966;-69
2021/12/22 03:04:20;;;;;;;23.23;12.37;;;0.90;99.90;0.50;101717.00;;;;5034083;27;92697;-70
2021/12/22 03:06:54;;;;;;;26.10;13.37;;;0.40;99.90;0.50;101714.00;;;;5025321;27;92703;-70
2021/12/22 03:09:27;;;;;;;26.83;13.20;;;0.90;99.90;0.50;101714.00;;;;5034877;27;93214;-69
2021/12/22 03:11:56;;;;;;;20.17;12.47;;;0.80;99.90;0.50;101707.00;;;;5034889;27;92899;-69
2021/12/22 03:14:23;;;;;;;30.53;13.07;;;0.70;99.90;0.50;101711.00;;;;5035326;27;93068;-69
2021/12/22 03:16:50;;;;;;;22.50;11.80;;;0.70;99.90;0.50;101708.00;;;;5053470;27;92709;-70
2021/12/22 03:19:23;;;;;;;21.37;11.53;;;0.90;99.90;0.40;101708.00;;;;5052788;27;94346;-69
2021/12/22 03:21:52;;;;;;;25.43;11.83;;;0.70;99.90;0.40;101712.00;;;;5034880;27;95876;-69
2021/12/22 03:24:21;;;;;;;22.23;10.60;;;0.70;99.90;0.40;101695.00;;;;5053380;27;93926;-69
2021/12/22 03:26:46;;;;;;;20.53;11.13;;;0.70;99.90;0.40;101707.00;;;;5053115;27;93165;-69
2021/12/22 03:29:17;;;;;;;18.17;11.47;;;0.70;99.90;0.40;101709.00;;;;5050725;27;123375;-69
2021/12/22 03:31:45;;;;;;;19.67;11.13;;;0.60;99.90;0.40;101717.00;;;;5028843;27;93878;-71
2021/12/22 03:34:11;;;;;;;17.87;11.33;;;1.00;99.90;0.40;101711.00;;;;5034859;27;93104;-69
2021/12/22 03:36:37;;;;;;;18.87;11.30;;;0.60;99.90;0.40;101713.00;;;;5029838;27;118101;-69
2021/12/22 03:39:05;;;;;;;23.70;11.93;;;0.70;99.90;0.40;101708.00;;;;5036444;27;93694;-69
2021/12/22 03:41:34;;;;;;;24.90;12.47;;;0.70;99.90;0.50;101716.00;;;;5014169;27;92097;-70
2021/12/22 03:44:01;;;;;;;26.07;12.13;;;0.90;99.90;0.50;101711.00;;;;5033457;27;92689;-69
2021/12/22 03:46:27;;;;;;;26.83;12.63;;;0.80;99.90;0.50;101708.00;;;;5024016;27;92918;-69
2021/12/22 03:48:53;;;;;;;23.30;11.23;;;0.70;99.90;0.50;101703.00;;;;5035866;27;122866;-69
2021/12/22 03:51:19;;;;;;;26.80;12.53;;;1.50;99.90;0.50;101706.00;;;;5053113;27;92758;-70
2021/12/22 03:53:44;;;;;;;22.67;12.17;;;0.80;99.90;0.50;101711.00;;;;5033180;27;107899;-69
2021/12/22 03:56:10;;;;;;;24.80;13.60;;;0.80;99.90;0.50;101715.00;;;;5051872;27;123510;-69
2021/12/22 03:58:36;;;;;;;20.03;9.73;;;1.00;99.90;0.50;101712.00;;;;5053097;27;93132;-69
2021/12/22 04:01:04;;;;;;;20.27;12.47;;;0.90;99.90;0.50;101716.00;;;;5053931;27;92837;-70
2021/12/22 04:03:33;;;;;;;21.07;11.37;;;0.80;99.90;0.50;101704.00;;;;5034280;27;92965;-69
2021/12/22 04:05:59;;;;;;;16.63;10.63;;;0.80;99.90;0.50;101703.00;;;;5045597;27;93123;-68
2021/12/22 04:08:24;;;;;;;19.50;11.60;;;0.80;99.90;0.40;101710.00;;;;5028909;27;93033;-69
2021/12/22 04:10:51;;;;;;;16.80;11.50;;;1.40;99.90;0.30;101698.00;;;;5020718;27;92767;-68
2021/12/22 04:13:18;;;;;;;22.10;12.53;;;0.70;99.90;0.30;101699.00;;;;5031472;27;93899;-69
2021/12/22 04:15:44;;;;;;;18.47;11.27;;;0.60;99.90;0.20;101686.00;;;;5026340;27;93431;-68
2021/12/22 04:18:12;;;;;;;27.67;11.70;;;0.60;99.90;0.00;101695.00;;;;5030120;27;93645;-68
2021/12/22 04:20:38;;;;;;;20.83;11.80;;;1.40;99.90;-0.10;101690.00;;;;5046529;27;98384;-69
2021/12/22 04:23:05;;;;;;;16.20;10.00;;;1.00;99.90;-0.20;101691.00;;;;5010484;27;93002;-69
2021/12/22 04:25:32;;;;;;;16.23;10.33;;;1.50;99.90;-0.30;101685.00;;;;5027880;27;93751;-69
2021/12/22 04:28:05;;;;;;;21.37;13.07;;;0.10;99.90;-0.40;101696.00;;;;5036014;27;93061;-69
2021/12/22 04:30:35;;;;;;;15.73;10.27;;;0.10;99.90;-0.50;101684.00;;;;5034871;27;92038;-69
2021/12/22 04:33:02;;;;;;;18.47;12.17;;;-0.10;99.90;-0.50;101680.00;;;;5029419;27;93017;-69
2021/12/22 04:35:28;;;;;;;20.13;13.13;;;0.20;99.90;-0.60;101689.00;;;;5014285;27;93191;-69
2021/12/22 04:37:54;;;;;;;20.53;11.80;;;-0.20;99.90;-0.70;101690.00;;;;5031032;27;93846;-68
2021/12/22 04:40:20;;;;;;;20.33;12.20;;;-0.10;99.90;-0.70;101683.00;;;;5029911;27;93201;-69
2021/12/22 04:42:46;;;;;;;17.53;11.63;;;-0.30;99.90;-0.80;101683.00;;;;5026922;27;92772;-69
2021/12/22 04:45:13;;;;;;;16.87;11.30;;;-0.50;99.90;-0.90;101688.00;;;;5030475;27;93292;-68
2021/12/22 04:47:40;;;;;;;18.07;10.00;;;-0.50;99.90;-1.00;101682.00;;;;5026933;27;93213;-68
2021/12/22 04:50:13;;;;;;;19.80;10.90;;;-0.60;99.90;-1.00;101680.00;;;;5052527;27;92869;-68
2021/12/22 04:53:06;;;;;;;24.73;13.00;;;-0.60;99.90;-1.10;101678.00;;;;5052378;27;92944;-69
2021/12/22 04:55:27;;;;;;;14.23;9.10;;;-0.70;99.90;-1.10;101692.00;;;;5031786;27;92246;-68
2021/12/22 04:57:58;;;;;;;20.73;10.87;;;-0.60;99.90;-1.20;101683.00;;;;5048688;27;92950;-68
2021/12/22 05:00:29;;;;;;;19.13;11.17;;;-0.80;99.90;-1.20;101687.00;;;;5031356;27;92789;-68
2021/12/22 05:02:56;;;;;;;17.77;11.43;;;-0.70;99.90;-1.20;101691.00;;;;5044965;27;93885;-68
2021/12/22 05:05:22;;;;;;;18.33;9.17;;;-0.90;99.90;-1.30;101692.00;;;;5056017;27;92903;-68
2021/12/22 05:07:48;;;;;;;12.80;9.57;;;0.20;99.90;-1.30;101696.00;;;;5037136;27;92812;-68
2021/12/22 05:10:18;;;;;;;22.33;12.60;;;-0.80;99.90;-1.30;101701.00;;;;5055892;27;92861;-68
2021/12/22 05:12:46;;;;;;;19.77;11.10;;;-0.90;99.90;-1.30;101693.00;;;;5054694;27;97929;-68
2021/12/22 05:15:13;;;;;;;22.00;12.20;;;-0.80;99.90;-1.30;101706.00;;;;5036495;27;93362;-69
2021/12/22 05:20:09;;;;;;;12.77;9.70;;;-0.90;99.90;-1.30;101698.00;;;;5050701;27;92411;-68
2021/12/22 05:22:35;;;;;;;20.47;10.93;;;-0.90;99.90;-1.20;101699.00;;;;5055733;27;93046;-68
2021/12/22 05:25:03;;;;;;;17.17;10.87;;;-0.70;99.90;-1.30;101700.00;;;;5055432;27;93123;-68
2021/12/22 05:27:30;;;;;;;30.53;16.50;;;-0.50;99.90;-1.30;101696.00;;;;5054390;27;99782;-68
2021/12/22 05:29:57;;;;;;;23.83;12.87;;;-0.90;99.90;-1.40;101692.00;;;;5047428;27;110991;-68
2021/12/22 05:32:26;;;;;;;17.43;12.20;;;-1.00;99.90;-1.50;101695.00;;;;5026444;27;92906;-68
2021/12/22 05:34:52;;;;;;;21.27;14.27;;;-1.00;99.90;-1.60;101683.00;;;;5036255;27;93094;-68
2021/12/22 05:37:18;;;;;;;17.90;11.53;;;-1.10;99.90;-1.60;101685.00;;;;5026423;27;94012;-68
2021/12/22 05:39:44;;;;;;;23.47;15.83;;;-1.20;99.90;-1.70;101677.00;;;;5034460;27;100015;-68
2021/12/22 05:42:10;;;;;;;34.87;18.77;;;-1.30;99.90;-1.70;101686.00;;;;5025380;27;108541;-68
2021/12/22 05:44:35;;;;;;;22.47;15.03;;;-1.30;99.90;-1.80;101682.00;;;;5034177;27;123194;-68
2021/12/22 05:47:01;;;;;;;23.33;13.03;;;-1.40;99.90;-1.80;101683.00;;;;5024931;27;122020;-68
2021/12/22 05:49:27;;;;;;;19.67;12.30;;;-0.80;99.90;-1.90;101677.00;;;;5034069;27;98716;-68
2021/12/22 05:51:52;;;;;;;12.57;9.87;;;-1.20;99.90;-1.90;101681.00;;;;5015691;27;93765;-68
2021/12/22 05:54:18;;;;;;;19.70;12.00;;;-0.80;99.90;-1.90;101676.00;;;;5044506;27;112869;-67
2021/12/22 05:56:44;;;;;;;15.27;10.37;;;-0.60;99.90;-2.00;101678.00;;;;5027259;27;101923;-67
2021/12/22 05:59:09;;;;;;;19.77;11.30;;;-1.60;99.90;-2.00;101690.00;;;;5034698;27;111716;-68
2021/12/22 06:01:35;;;;;;;18.20;11.87;;;-2.20;99.90;-2.00;101684.00;;;;5015352;27;99543;-68
2021/12/22 06:04:03;;;;;;;16.47;11.60;;;-0.50;99.90;-2.00;101682.00;;;;5032765;27;121719;-68
2021/12/22 06:06:29;;;;;;;20.97;11.33;;;-1.60;99.90;-2.10;101678.00;;;;5025851;27;93182;-68
2021/12/22 06:08:55;;;;;;;21.33;12.00;;;-1.70;99.90;-2.10;101688.00;;;;5034811;27;92114;-68
2021/12/22 06:11:21;;;;;;;21.67;12.63;;;-1.70;99.90;-2.10;101682.00;;;;5016937;27;93013;-68
2021/12/22 06:13:47;;;;;;;18.80;11.73;;;-1.60;99.90;-2.20;101680.00;;;;5031792;27;122714;-68
2021/12/22 06:16:12;;;;;;;16.37;11.33;;;-1.60;99.90;-2.20;101673.00;;;;5051656;27;122649;-68
2021/12/22 06:18:43;;;;;;;22.43;12.57;;;-1.80;99.90;-2.20;101686.00;;;;5053086;27;96546;-68
2021/12/22 06:21:11;;;;;;;24.30;13.87;;;-1.80;99.90;-2.20;101685.00;;;;5054769;27;92773;-68
2021/12/22 06:23:37;;;;;;;17.10;10.83;;;-1.80;99.90;-2.30;101682.00;;;;5035183;27;92922;-68
2021/12/22 06:26:03;;;;;;;17.20;9.83;;;-1.80;99.90;-2.30;101688.00;;;;5026474;27;123185;-67
2021/12/22 06:28:28;;;;;;;17.00;12.27;;;-1.90;99.90;-2.30;101685.00;;;;5047111;27;113147;-67
2021/12/22 06:30:54;;;;;;;23.07;10.43;;;-1.80;99.90;-2.30;101695.00;;;;5029337;27;92888;-67
2021/12/22 06:33:20;;;;;;;15.87;10.40;;;-1.80;99.90;-2.30;101705.00;;;;5033092;27;106578;-67
2021/12/22 06:35:47;;;;;;;18.70;12.27;;;-1.90;99.90;-2.30;101694.00;;;;5027944;27;123271;-68
2021/12/22 06:38:15;;;;;;;22.70;11.97;;;-1.80;99.90;-2.30;101699.00;;;;5014408;27;92993;-66
2021/12/22 06:40:41;;;;;;;20.13;11.77;;;-1.90;99.90;-2.30;101692.00;;;;5027486;27;96263;-67
2021/12/22 06:43:07;;;;;;;13.33;9.27;;;-1.90;99.90;-2.30;101703.00;;;;5031262;27;108915;-69
2021/12/22 06:45:33;;;;;;;20.57;11.83;;;-1.80;99.90;-2.30;101702.00;;;;5029916;27;92816;-67
2021/12/22 06:47:59;;;;;;;20.97;13.67;;;-1.90;99.90;-2.30;101711.00;;;;5015455;27;93037;-67
2021/12/22 06:50:24;;;;;;;12.50;10.27;;;-1.90;99.90;-2.30;101711.00;;;;5053366;27;92772;-67
2021/12/22 06:52:50;;;;;;;17.50;11.57;;;-1.90;99.90;-2.30;101718.00;;;;5053780;27;98604;-68
2021/12/22 06:55:16;;;;;;;18.80;12.07;;;-1.80;99.90;-2.40;101708.00;;;;5029055;27;105099;-66
2021/12/22 06:57:42;;;;;;;18.57;12.50;;;-1.90;99.90;-2.40;101711.00;;;;5054487;27;94371;-67
2021/12/22 07:00:11;;;;;;;18.23;13.17;;;-1.90;99.90;-2.40;101723.00;;;;5042875;27;93070;-67
2021/12/22 07:02:38;;;;;;;17.07;11.93;;;-1.90;99.90;-2.40;101725.00;;;;5026293;27;94261;-66
2021/12/22 07:05:07;;;;;;;16.77;12.37;;;-2.00;99.90;-2.40;101707.00;;;;5029753;27;93771;-67
2021/12/22 07:07:34;;;;;;;16.73;13.07;;;-2.00;99.90;-2.50;101713.00;;;;5023382;27;92942;-67
2021/12/22 07:10:01;;;;;;;23.73;13.33;;;-2.10;99.90;-2.50;101715.00;;;;5030394;27;92870;-67
2021/12/22 07:12:27;;;;;;;18.07;13.10;;;-2.10;99.90;-2.50;101715.00;;;;5001689;27;103369;-67
2021/12/22 07:14:52;;;;;;;23.13;14.43;;;-1.90;99.90;-2.40;101702.00;;;;5030287;27;93296;-67
2021/12/22 07:17:18;;;;;;;21.60;13.57;;;-2.00;99.90;-2.40;101698.00;;;;5029720;27;93036;-67
2021/12/22 07:19:44;;;;;;;19.30;13.47;;;-2.00;99.90;-2.40;101709.00;;;;5029356;27;109868;-67
2021/12/22 07:22:10;;;;;;;26.20;13.17;;;-2.00;99.90;-2.40;101704.00;;;;5029249;27;121681;-67
2021/12/22 07:24:36;;;;;;;23.70;14.53;;;-2.00;99.90;-2.40;101717.00;;;;5031336;27;121739;-67
2021/12/22 07:27:02;;;;;;;27.23;15.23;;;-2.00;99.90;-2.30;101718.00;;;;5037150;27;92728;-67
2021/12/22 07:29:27;;;;;;;28.00;15.50;;;-1.90;99.90;-2.30;101711.00;;;;5029966;27;93806;-67
2021/12/22 07:31:53;;;;;;;20.47;13.50;;;-1.90;99.90;-2.30;101716.00;;;;5035105;27;102322;-66
2021/12/22 07:34:57;;;;;;;23.17;14.67;;;-1.80;99.90;-2.40;101705.00;;;;5032239;27;122428;-66
2021/12/22 07:37:33;;;;;;;17.73;12.93;;;-1.90;99.90;-2.30;101705.00;;;;5032459;27;93178;-66
2021/12/22 07:39:58;;;;;;;20.07;14.00;;;-1.90;99.90;-2.10;101707.00;;;;5013501;27;94239;-67
2021/12/22 07:42:24;;;;;;;25.73;14.30;;;-1.70;99.90;-2.00;101711.00;;;;5028350;27;123037;-66
2021/12/22 07:44:49;;;;;;;25.00;16.40;;;-1.60;99.90;-1.80;101717.00;;;;5030304;27;122906;-66
2021/12/22 07:47:15;;;;;;;27.83;16.70;;;-1.50;99.90;-1.70;101717.00;;;;5041328;27;113367;-66
2021/12/22 07:49:42;;;;;;;25.77;15.27;;;-1.30;99.90;-1.50;101710.00;;;;5041462;27;92755;-67
2021/12/22 07:52:08;;;;;;;29.73;15.90;;;-1.00;99.90;-1.40;101712.00;;;;5029416;27;93972;-67
2021/12/22 07:54:34;;;;;;;22.83;15.87;;;-1.00;99.90;-1.30;101719.00;;;;5030491;27;93670;-67
2021/12/22 07:56:59;;;;;;;26.00;16.00;;;-0.90;99.90;-1.10;101719.00;;;;5028246;27;113461;-68
2021/12/22 07:59:25;;;;;;;21.97;14.73;;;-0.90;99.90;-0.90;101728.00;;;;5027689;27;109845;-67
2021/12/22 08:01:51;;;;;;;26.93;15.17;;;0.50;99.90;-0.70;101732.00;;;;5035331;27;94175;-67
2021/12/22 08:04:17;;;;;;;24.57;14.93;;;-0.20;99.90;-0.60;101728.00;;;;5020404;27;93910;-67
2021/12/22 08:06:42;;;;;;;27.73;14.77;;;0.70;99.90;-0.40;101726.00;;;;5034768;27;111514;-67
2021/12/22 08:09:08;;;;;;;28.53;16.23;;;0.20;99.90;-0.30;101731.00;;;;5028746;27;109052;-68
2021/12/22 08:11:34;;;;;;;23.67;12.83;;;-0.30;99.90;-0.10;101716.00;;;;5009542;27;120564;-67
2021/12/22 08:14:00;;;;;;;21.17;13.47;;;0.80;99.90;0.10;101724.00;;;;5012995;27;115678;-67
2021/12/22 08:16:26;;;;;;;22.67;12.60;;;0.40;99.90;0.20;101731.00;;;;5009188;27;92861;-67
2021/12/22 08:18:51;;;;;;;27.80;13.13;;;0.50;99.90;0.40;101723.00;;;;5018544;27;108452;-68
2021/12/22 08:21:17;;;;;;;22.03;11.27;;;0.80;99.90;0.50;101741.00;;;;5007497;27;123276;-68
2021/12/22 08:23:43;;;;;;;21.43;12.83;;;0.70;99.90;0.70;101738.00;;;;5009221;27;93029;-68
2021/12/22 08:26:09;;;;;;;23.23;14.00;;;1.00;99.90;0.80;101727.00;;;;5009276;27;93528;-68
2021/12/22 08:28:34;;;;;;;27.67;13.67;;;1.00;99.90;1.00;101724.00;;;;5010081;27;92945;-68
2021/12/22 08:31:00;;;;;;;21.10;11.63;;;1.80;99.90;1.10;101732.00;;;;5007711;27;122881;-68
2021/12/22 08:33:30;;;;;;;20.23;11.10;;;2.40;99.90;1.20;101726.00;;;;5010367;27;95169;-68
2021/12/22 08:38:51;;;;;;;23.23;11.17;;;2.10;99.90;1.50;101733.00;;;;5012332;27;93157;-67
2021/12/22 08:41:20;;;;;;;14.90;10.87;;;1.70;99.90;1.70;101737.00;;;;5015816;27;95310;-67
2021/12/22 08:43:45;;;;;;;15.80;11.23;;;1.90;99.90;1.90;101726.00;;;;5012097;27;101763;-69
2021/12/22 08:46:11;;;;;;;15.90;11.07;;;2.20;99.90;2.10;101736.00;;;;4993923;27;92713;-67
2021/12/22 08:48:37;;;;;;;18.10;10.63;;;2.30;99.90;2.30;101736.00;;;;5012769;27;108105;-67
2021/12/22 08:51:02;;;;;;;18.57;12.33;;;3.10;99.90;2.50;101747.00;;;;5012326;27;122652;-67
2021/12/22 08:53:28;;;;;;;16.87;11.17;;;3.20;99.90;2.60;101742.00;;;;5011248;27;122580;-67
2021/12/22 08:55:54;;;;;;;18.53;11.33;;;2.80;99.90;2.60;101741.00;;;;5010873;27;112772;-66
2021/12/22 08:58:19;;;;;;;19.87;11.53;;;3.20;99.90;2.70;101741.00;;;;5012326;27;102655;-67
2021/12/22 09:00:45;;;;;;;17.57;10.67;;;3.00;99.90;2.90;101730.00;;;;5016967;27;122453;-67
2021/12/22 09:03:11;;;;;;;13.40;9.40;;;2.90;99.90;3.10;101723.00;;;;5013042;27;121768;-67
2021/12/22 09:05:37;;;;;;;14.27;7.67;;;3.40;99.90;3.20;101726.00;;;;5012017;27;111890;-66
2021/12/22 09:08:03;;;;;;;12.03;6.87;;;3.40;99.90;3.30;101733.00;;;;5012431;27;93773;-66
2021/12/22 09:10:29;;;;;;;15.07;7.63;;;3.50;99.90;3.50;101731.00;;;;5015914;27;93105;-66
2021/12/22 09:12:55;;;;;;;12.80;8.37;;;3.70;99.90;3.60;101735.00;;;;5011325;27;122493;-65
2021/12/22 09:15:21;;;;;;;12.37;7.50;;;3.80;99.90;3.70;101726.00;;;;5012804;27;92806;-66
2021/12/22 09:17:46;;;;;;;14.23;7.30;;;3.90;99.90;3.80;101733.00;;;;5012998;27;93575;-66
2021/12/22 09:20:12;;;;;;;13.63;8.43;;;4.00;99.90;3.80;101743.00;;;;5014607;27;122776;-66
2021/12/22 09:22:38;;;;;;;13.73;8.07;;;4.10;99.90;3.90;101728.00;;;;5013312;27;93533;-67
2021/12/22 09:25:05;;;;;;;16.20;8.07;;;4.20;99.90;4.00;101733.00;;;;5012179;27;95436;-66
2021/12/22 09:27:31;;;;;;;13.80;7.27;;;4.20;99.90;4.10;101731.00;;;;5011970;27;93015;-67
2021/12/22 09:29:56;;;;;;;13.77;7.73;;;4.30;99.90;4.20;101726.00;;;;5014317;27;108665;-65
2021/12/22 09:32:22;;;;;;;14.53;8.27;;;4.30;99.90;4.30;101730.00;;;;5010308;27;121518;-66
2021/12/22 09:34:52;;;;;;;16.77;8.93;;;4.50;99.90;4.50;101732.00;;;;5018332;27;109296;-67
2021/12/22 09:37:19;;;;;;;17.30;10.90;;;4.60;99.90;4.70;101735.00;;;;5017531;27;93119;-66
2021/12/22 09:39:45;;;;;;;11.73;8.07;;;4.80;99.90;4.90;101739.00;;;;5011901;27;93130;-67
2021/12/22 09:42:11;;;;;;;13.80;8.90;;;5.00;99.90;5.00;101735.00;;;;5012334;27;92977;-67
2021/12/22 09:44:44;;;;;;;12.37;7.13;;;5.10;99.90;5.00;101726.00;;;;5016457;27;110683;-68
2021/12/22 09:47:23;;;;;;;14.77;8.03;;;5.10;99.90;5.10;101726.00;;;;5011968;27;92763;-67
2021/12/22 09:50:05;;;;;;;13.20;8.73;;;5.20;99.90;5.10;101731.00;;;;5014397;27;92057;-67
2021/12/22 09:52:31;;;;;;;12.00;8.00;;;5.30;99.90;5.30;101732.00;;;;5011822;27;92928;-67
2021/12/22 09:55:00;;;;;;;11.00;7.30;;;5.30;99.90;5.30;101724.00;;;;5019432;27;92917;-67
2021/12/22 09:57:29;;;;;;;13.27;8.03;;;5.40;99.90;5.40;101716.00;;;;5011758;27;93704;-68
2021/12/22 09:59:57;;;;;;;13.20;6.87;;;5.50;99.90;5.60;101715.00;;;;4993866;27;105541;-67
2021/12/22 10:02:28;;;;;;;20.27;9.13;;;5.60;99.90;5.80;101711.00;;;;5011189;27;93826;-67
2021/12/22 10:04:58;;;;;;;15.23;8.47;;;5.80;99.90;5.70;101715.00;;;;5012401;27;93138;-67
2021/12/22 10:07:27;;;;;;;9.13;7.40;;;5.80;99.90;5.70;101701.00;;;;5010131;27;93170;-67
2021/12/22 10:10:04;;;;;;;15.57;8.30;;;5.80;99.90;5.70;101709.00;;;;4994283;27;93542;-67
2021/12/22 10:12:31;;;;;;;15.80;8.80;;;5.70;99.90;5.70;101702.00;;;;4975355;27;95084;-69
2021/12/22 10:15:00;;;;;;;16.33;9.13;;;5.80;99.90;5.70;101697.00;;;;5013291;27;110529;-68
2021/12/22 10:17:42;;;;;;;17.30;8.43;;;5.80;99.90;5.70;101698.00;;;;5012083;27;92770;-71
2021/12/22 10:20:16;;;;;;;16.30;8.27;;;5.80;99.90;5.70;101700.00;;;;4992027;27;92934;-68
2021/12/22 10:22:46;;;;;;;16.27;8.20;;;5.80;99.90;5.80;101699.00;;;;5010800;27;93929;-69
2021/12/22 10:25:25;;;;;;;14.43;8.20;;;5.80;99.90;6.00;101691.00;;;;5012324;27;92906;-70
2021/12/22 10:28:08;;;;;;;14.67;9.23;;;6.10;99.90;6.20;101692.00;;;;5016003;27;92726;-69
2021/12/22 10:30:40;;;;;;;14.33;8.23;;;6.20;99.90;6.40;101697.00;;;;5016951;27;94497;-69
2021/12/22 10:33:13;;;;;;;11.10;7.47;;;6.40;99.90;6.50;101683.00;;;;4991806;27;103444;-68
2021/12/22 10:35:41;;;;;;;9.77;6.23;;;5.20;99.90;6.50;101686.00;;;;5015122;27;92868;-69
2021/12/22 10:38:09;;;;;;;9.93;7.23;;;6.60;99.90;6.50;101683.00;;;;4996005;27;92754;-70
2021/12/22 10:40:41;;;;;;;9.90;6.80;;;6.50;99.90;6.50;101685.00;;;;4999180;27;92121;-71
2021/12/22 10:43:19;;;;;;;9.07;7.00;;;6.50;99.90;6.50;101685.00;;;;5016178;27;93056;-70
2021/12/22 10:45:53;;;;;;;10.53;7.03;;;6.60;99.80;6.40;101683.00;;;;5017285;27;92742;-69
2021/12/22 10:51:10;;;;;;;11.00;7.03;;;6.30;97.20;6.10;101686.00;;;;4996413;27;93211;-68
2021/12/22 10:53:48;;;;;;;11.87;7.30;;;6.20;97.90;6.30;101672.00;;;;5010793;27;94378;-68
2021/12/22 10:56:27;;;;;;;10.93;6.83;;;6.30;99.90;6.50;101671.00;;;;4994309;27;93269;-71
2021/12/22 10:59:12;;;;;;;12.97;6.70;;;6.40;99.90;6.50;101679.00;;;;4997962;27;93148;-71
2021/12/22 11:01:48;;;;;;;12.93;6.90;;;6.60;99.80;6.60;101667.00;;;;5010671;27;93296;-71
2021/12/22 11:04:21;;;;;;;10.60;6.83;;;6.60;99.90;6.70;101671.00;;;;5015863;27;94270;-71
2021/12/22 11:06:49;;;;;;;14.87;7.50;;;6.70;99.60;6.70;101673.00;;;;5012674;27;92381;-69